createdAt,value
2019-05-29T00:00:46.281Z,38.14
2019-05-29T00:03:14.354Z,38.07
2019-05-29T00:05:39.781Z,37.95
2019-05-29T00:08:06.540Z,37.84
2019-05-29T00:10:33.232Z,37.74
2019-05-29T00:12:59.870Z,37.78
2019-05-29T00:15:26.516Z,37.63
2019-05-29T00:17:53.153Z,37.55
2019-05-29T00:20:19.797Z,37.59
2019-05-29T00:22:46.491Z,37.47
2019-05-29T00:25:13.181Z,37.39
2019-05-29T00:27:39.824Z,37.25
2019-05-29T00:30:06.950Z,37.35
2019-05-29T00:32:33.126Z,37.33
2019-05-29T00:34:59.789Z,37.15
2019-05-29T00:37:26.434Z,37.04
2019-05-29T00:39:53.084Z,37.00
2019-05-29T00:44:46.438Z,37.10
2019-05-29T00:47:13.657Z,37.71
2019-05-29T00:49:39.752Z,38.31
2019-05-29T00:52:06.388Z,38.30
2019-05-29T00:54:33.072Z,38.12
2019-05-29T00:56:59.858Z,38.60
2019-05-29T00:59:26.496Z,38.72
2019-05-29T01:01:53.240Z,38.94
2019-05-29T01:04:20.069Z,39.19
2019-05-29T01:06:46.748Z,39.14
2019-05-29T01:09:14.443Z,39.08
2019-05-29T01:11:40.233Z,38.95
2019-05-29T01:14:06.879Z,38.91
2019-05-29T01:16:33.535Z,38.89
2019-05-29T01:19:00.177Z,38.58
2019-05-29T01:21:26.877Z,38.53
2019-05-29T01:23:53.556Z,38.45
2019-05-29T01:26:20.904Z,39.24
2019-05-29T01:28:46.877Z,39.62
2019-05-29T01:31:13.651Z,39.22
2019-05-29T01:33:40.208Z,39.60
2019-05-29T01:36:06.854Z,39.85
2019-05-29T01:38:33.490Z,39.89
2019-05-29T01:41:00.151Z,40.04
2019-05-29T01:43:27.678Z,40.24
2019-05-29T01:45:53.485Z,40.38
2019-05-29T01:48:20.128Z,40.57
2019-05-29T01:50:46.770Z,40.73
2019-05-29T01:53:13.458Z,40.85
2019-05-29T01:55:40.093Z,40.72
2019-05-29T01:58:06.822Z,40.85
2019-05-29T02:00:33.501Z,41.04
2019-05-29T02:03:00.138Z,41.03
2019-05-29T02:07:53.599Z,41.18
2019-05-29T02:10:20.357Z,41.28
2019-05-29T02:12:46.889Z,41.40
2019-05-29T02:15:23.926Z,41.31
2019-05-29T02:17:40.234Z,41.44
2019-05-29T02:20:06.904Z,41.57
2019-05-29T02:22:33.553Z,41.52
2019-05-29T02:25:00.201Z,41.64
2019-05-29T02:27:27.726Z,41.70
2019-05-29T02:29:53.532Z,41.70
2019-05-29T02:32:21.372Z,41.72
2019-05-29T02:34:46.822Z,41.77
2019-05-29T02:37:13.538Z,41.78
2019-05-29T02:39:40.188Z,41.83
2019-05-29T02:42:06.819Z,41.84
2019-05-29T02:44:33.469Z,41.86
2019-05-29T02:47:00.172Z,41.82
2019-05-29T02:49:28.099Z,41.89
2019-05-29T02:51:53.463Z,41.68
2019-05-29T02:54:20.434Z,41.71
2019-05-29T02:56:46.882Z,41.84
2019-05-29T02:59:13.525Z,41.86
2019-05-29T03:01:40.170Z,41.72
2019-05-29T03:04:06.865Z,41.80
2019-05-29T03:06:33.715Z,41.64
2019-05-29T03:09:00.368Z,41.98
2019-05-29T03:11:27.233Z,41.97
2019-05-29T03:13:54.915Z,42.20
2019-05-29T03:16:20.336Z,42.61
2019-05-29T03:18:48.051Z,42.79
2019-05-29T03:21:13.795Z,42.57
2019-05-29T03:23:40.441Z,42.87
2019-05-29T03:28:35.037Z,42.65
2019-05-29T03:31:00.501Z,42.59
2019-05-29T03:33:31.041Z,42.43
2019-05-29T03:35:53.802Z,42.14
2019-05-29T03:38:20.446Z,42.12
2019-05-29T03:40:47.094Z,42.17
2019-05-29T03:43:16.914Z,42.03
2019-05-29T03:45:43.554Z,42.09
2019-05-29T03:48:10.197Z,42.09
2019-05-29T03:50:38.182Z,42.10
2019-05-29T03:53:03.509Z,41.94
2019-05-29T03:55:31.556Z,42.14
2019-05-29T03:57:56.844Z,41.97
2019-05-29T04:00:23.523Z,42.01
2019-05-29T04:02:50.217Z,41.88
2019-05-29T04:05:17.028Z,41.79
2019-05-29T04:07:43.671Z,41.64
2019-05-29T04:10:10.403Z,41.56
2019-05-29T04:12:38.097Z,41.39
2019-05-29T04:15:03.698Z,41.53
2019-05-29T04:17:31.841Z,42.10
2019-05-29T04:19:56.973Z,42.19
2019-05-29T04:22:23.620Z,42.61
2019-05-29T04:27:16.915Z,42.32
2019-05-29T04:29:43.571Z,42.17
2019-05-29T04:32:10.207Z,41.79
2019-05-29T04:34:37.897Z,41.93
2019-05-29T04:37:07.194Z,41.82
2019-05-29T04:39:30.598Z,41.32
2019-05-29T04:41:56.856Z,41.29
2019-05-29T04:44:23.508Z,41.19
2019-05-29T04:47:08.987Z,41.13
2019-05-29T04:49:20.176Z,40.85
2019-05-29T04:51:43.479Z,40.31
2019-05-29T04:54:10.105Z,40.21
2019-05-29T04:56:36.983Z,40.30
2019-05-29T05:01:30.898Z,40.10
2019-05-29T05:03:56.769Z,39.89
2019-05-29T05:06:23.493Z,39.85
2019-05-29T05:08:50.131Z,39.82
2019-05-29T05:11:16.789Z,39.78
2019-05-29T05:13:43.439Z,39.79
2019-05-29T05:16:10.094Z,39.55
2019-05-29T05:18:37.865Z,39.42
2019-05-29T05:21:03.392Z,39.58
2019-05-29T05:23:30.198Z,39.51
2019-05-29T05:25:56.680Z,39.38
2019-05-29T05:28:23.324Z,39.18
2019-05-29T05:30:49.975Z,38.95
2019-05-29T05:33:16.618Z,38.84
2019-05-29T05:35:43.276Z,38.84
2019-05-29T05:38:09.915Z,38.71
2019-05-29T05:40:39.477Z,38.60
2019-05-29T05:43:03.231Z,38.67
2019-05-29T05:45:30.858Z,38.86
2019-05-29T05:47:57.995Z,38.45
2019-05-29T05:50:23.203Z,38.90
2019-05-29T05:52:49.939Z,38.83
2019-05-29T05:55:16.678Z,39.10
2019-05-29T05:57:43.321Z,38.87
2019-05-29T06:00:09.970Z,39.13
2019-05-29T06:02:38.138Z,39.11
2019-05-29T06:05:03.266Z,39.25
2019-05-29T06:07:29.901Z,39.34
2019-05-29T06:12:23.282Z,39.21
2019-05-29T06:14:49.928Z,39.25
2019-05-29T06:17:16.570Z,39.23
2019-05-29T06:19:43.266Z,39.21
2019-05-29T06:22:09.857Z,39.19
2019-05-29T06:24:37.183Z,39.07
2019-05-29T06:27:03.172Z,39.06
2019-05-29T06:29:29.814Z,38.72
2019-05-29T06:31:56.454Z,38.54
2019-05-29T06:34:23.127Z,38.55
2019-05-29T06:36:49.754Z,38.70
2019-05-29T06:39:16.397Z,38.62
2019-05-29T06:41:44.361Z,38.61
2019-05-29T06:44:09.728Z,38.53
2019-05-29T06:46:36.387Z,38.63
2019-05-29T06:49:03.048Z,38.41
2019-05-29T06:51:29.768Z,38.43
2019-05-29T06:53:56.408Z,38.28
2019-05-29T06:56:23.040Z,38.14
2019-05-29T06:58:49.703Z,38.00
2019-05-29T07:01:16.342Z,38.13
2019-05-29T07:03:43.970Z,38.22
2019-05-29T07:06:09.905Z,38.12
2019-05-29T07:08:39.946Z,38.14
2019-05-29T07:11:03.129Z,38.14
2019-05-29T07:13:29.774Z,37.99
2019-05-29T07:15:56.431Z,38.03
2019-05-29T07:18:23.096Z,37.80
2019-05-29T07:20:49.725Z,37.87
2019-05-29T07:23:16.368Z,37.83
2019-05-29T07:25:43.062Z,37.75
2019-05-29T07:28:09.704Z,37.66
2019-05-29T07:30:37.318Z,37.66
2019-05-29T07:33:03.042Z,37.73
2019-05-29T07:35:29.670Z,37.68
2019-05-29T07:37:56.319Z,37.69
2019-05-29T07:40:22.962Z,37.72
2019-05-29T07:42:55.185Z,37.57
2019-05-29T07:45:16.254Z,37.57
2019-05-29T07:47:44.272Z,37.65
2019-05-29T07:50:09.539Z,37.46
2019-05-29T07:52:36.261Z,37.63
2019-05-29T07:55:02.882Z,37.58
2019-05-29T07:57:29.534Z,37.64
2019-05-29T07:59:57.319Z,37.75
2019-05-29T08:02:22.827Z,37.75
2019-05-29T08:04:49.876Z,37.84
2019-05-29T08:07:16.358Z,37.85
2019-05-29T08:09:43.624Z,37.84
2019-05-29T08:12:09.660Z,37.94
2019-05-29T08:14:36.307Z,38.06
2019-05-29T08:17:02.955Z,37.82
2019-05-29T08:19:29.615Z,37.82
2019-05-29T08:21:56.247Z,37.65
2019-05-29T08:24:24.837Z,37.74
2019-05-29T08:26:50.972Z,37.75
2019-05-29T08:29:16.257Z,38.02
2019-05-29T08:31:42.905Z,38.31
2019-05-29T08:34:09.558Z,38.07
2019-05-29T08:36:36.330Z,38.29
2019-05-29T08:39:02.987Z,38.17
2019-05-29T08:41:29.630Z,38.22
2019-05-29T08:43:56.280Z,38.21
2019-05-29T08:46:22.986Z,38.02
2019-05-29T08:48:49.966Z,37.83
2019-05-29T08:51:16.260Z,37.94
2019-05-29T08:53:44.138Z,37.87
2019-05-29T08:56:09.657Z,37.78
2019-05-29T08:58:37.302Z,37.69
2019-05-29T09:01:03.162Z,37.91
2019-05-29T09:03:29.800Z,37.92
2019-05-29T09:06:08.544Z,38.18
2019-05-29T09:08:23.289Z,37.94
2019-05-29T09:10:51.652Z,37.91
2019-05-29T09:15:43.265Z,37.94
2019-05-29T09:18:09.910Z,37.91
2019-05-29T09:20:57.941Z,38.19
2019-05-29T09:23:03.205Z,38.12
2019-05-29T09:25:29.841Z,38.64
2019-05-29T09:27:56.497Z,38.68
2019-05-29T09:30:23.628Z,38.47
2019-05-29T09:32:52.353Z,38.51
2019-05-29T09:35:18.238Z,38.79
2019-05-29T09:37:43.120Z,38.58
2019-05-29T09:40:09.765Z,38.69
2019-05-29T09:42:36.405Z,38.61
2019-05-29T09:45:03.061Z,38.40
2019-05-29T09:47:29.707Z,38.29
2019-05-29T09:49:56.366Z,38.60
2019-05-29T09:52:22.998Z,38.31
2019-05-29T09:54:49.658Z,38.50
2019-05-29T09:57:16.312Z,37.76
2019-05-29T09:59:42.946Z,38.00
2019-05-29T10:02:09.610Z,37.90
2019-05-29T10:04:36.271Z,37.67
2019-05-29T10:07:04.793Z,37.88
2019-05-29T10:09:29.771Z,37.85
2019-05-29T10:11:59.637Z,37.44
2019-05-29T10:14:23.158Z,37.81
2019-05-29T10:16:49.819Z,37.61
2019-05-29T10:19:16.484Z,37.50
2019-05-29T10:21:43.149Z,37.66
2019-05-29T10:24:09.768Z,37.66
2019-05-29T10:26:36.422Z,37.64
2019-05-29T10:29:08.610Z,37.65
2019-05-29T10:31:29.731Z,37.61
2019-05-29T10:33:56.373Z,37.65
2019-05-29T10:36:23.207Z,37.83
2019-05-29T10:38:50.722Z,37.89
2019-05-29T10:41:16.312Z,37.90
2019-05-29T10:46:09.612Z,37.71
2019-05-29T10:48:36.268Z,37.63
2019-05-29T10:51:03.013Z,37.90
2019-05-29T10:53:29.683Z,37.80
2019-05-29T10:55:56.322Z,37.62
2019-05-29T10:58:22.977Z,37.77
2019-05-29T11:00:51.137Z,37.75
2019-05-29T11:03:16.351Z,37.62
2019-05-29T11:05:43.197Z,37.76
2019-05-29T11:08:09.833Z,37.61
2019-05-29T11:10:36.534Z,37.03
2019-05-29T11:13:03.183Z,37.29
2019-05-29T11:15:29.819Z,37.85
2019-05-29T11:17:57.395Z,37.48
2019-05-29T11:20:23.163Z,37.61
2019-05-29T11:22:49.863Z,37.71
2019-05-29T11:25:22.516Z,37.70
2019-05-29T11:27:43.169Z,37.71
2019-05-29T11:30:09.820Z,37.69
2019-05-29T11:32:36.482Z,37.92
2019-05-29T11:35:03.202Z,38.02
2019-05-29T11:37:29.873Z,38.02
2019-05-29T11:39:56.856Z,37.77
2019-05-29T11:42:27.168Z,37.86
2019-05-29T11:44:50.873Z,37.94
2019-05-29T11:47:16.490Z,38.04
2019-05-29T11:49:43.126Z,37.94
2019-05-29T11:52:23.653Z,37.88
2019-05-29T11:54:36.441Z,37.86
2019-05-29T11:57:03.328Z,38.03
2019-05-29T11:59:29.775Z,37.81
2019-05-29T12:01:57.306Z,37.73
2019-05-29T12:04:26.565Z,37.88
2019-05-29T12:06:51.081Z,37.57
2019-05-29T12:09:31.286Z,37.79
2019-05-29T12:11:43.385Z,37.96
2019-05-29T12:14:10.028Z,37.78
2019-05-29T12:16:36.738Z,37.70
2019-05-29T12:19:03.374Z,37.55
2019-05-29T12:21:30.027Z,37.93
2019-05-29T12:23:56.673Z,37.90
2019-05-29T12:26:23.490Z,37.68
2019-05-29T12:28:49.969Z,37.47
2019-05-29T12:31:16.618Z,37.79
2019-05-29T12:33:43.254Z,37.85
2019-05-29T12:36:09.901Z,37.98
2019-05-29T12:38:36.599Z,38.08
2019-05-29T12:41:03.824Z,37.99
2019-05-29T12:43:29.898Z,37.74
2019-05-29T12:45:57.725Z,37.87
2019-05-29T12:50:49.852Z,37.87
2019-05-29T12:53:29.804Z,37.78
2019-05-29T12:55:43.145Z,37.89
2019-05-29T12:58:09.865Z,38.01
2019-05-29T13:00:36.511Z,37.99
2019-05-29T13:03:03.761Z,38.38
2019-05-29T13:05:29.811Z,38.31
2019-05-29T13:07:56.858Z,38.00
2019-05-29T13:10:30.502Z,38.05
2019-05-29T13:12:49.824Z,38.33
2019-05-29T13:15:16.490Z,38.71
2019-05-29T13:17:43.140Z,38.44
2019-05-29T13:20:21.063Z,38.40
2019-05-29T13:22:36.524Z,38.57
2019-05-29T13:25:03.494Z,38.48
2019-05-29T13:27:29.868Z,38.31
2019-05-29T13:29:59.872Z,38.20
2019-05-29T13:32:23.203Z,38.30
2019-05-29T13:37:16.510Z,38.12
2019-05-29T13:39:43.152Z,38.24
2019-05-29T13:42:12.112Z,37.88
2019-05-29T13:44:36.465Z,38.02
2019-05-29T13:47:04.049Z,38.22
2019-05-29T13:49:29.851Z,38.10
2019-05-29T13:51:57.148Z,37.94
2019-05-29T13:54:23.141Z,38.38
2019-05-29T13:56:50.134Z,38.42
2019-05-29T13:59:16.439Z,38.50
2019-05-29T14:01:47.962Z,38.24
2019-05-29T14:04:09.802Z,38.49
2019-05-29T14:06:38.646Z,38.50
2019-05-29T14:09:03.130Z,38.28
2019-05-29T14:11:29.782Z,38.48
2019-05-29T14:13:56.506Z,38.59
2019-05-29T14:16:23.083Z,38.39
2019-05-29T14:18:49.863Z,38.63
2019-05-29T14:23:43.148Z,38.73
2019-05-29T14:26:09.790Z,38.57
2019-05-29T14:28:36.455Z,38.65
2019-05-29T14:31:03.889Z,38.79
2019-05-29T14:33:29.752Z,38.67
2019-05-29T14:35:56.389Z,38.48
2019-05-29T14:38:23.074Z,38.55
2019-05-29T14:40:49.727Z,38.49
2019-05-29T14:43:16.385Z,38.39
2019-05-29T14:45:43.086Z,38.69
2019-05-29T14:48:10.189Z,38.58
2019-05-29T14:50:36.366Z,38.40
2019-05-29T14:53:03.093Z,38.84
2019-05-29T14:57:56.326Z,38.72
2019-05-29T15:00:25.767Z,39.17
2019-05-29T15:02:49.672Z,38.56
2019-05-29T15:05:16.351Z,38.39
2019-05-29T15:10:22.692Z,37.82
2019-05-29T15:12:36.345Z,37.84
2019-05-29T15:15:04.634Z,37.96
2019-05-29T15:17:29.665Z,37.74
2019-05-29T15:19:56.358Z,37.38
2019-05-29T15:22:23.003Z,37.37
2019-05-29T15:25:00.827Z,37.12
2019-05-29T15:27:16.305Z,36.66
2019-05-29T15:29:42.949Z,36.80
2019-05-29T15:32:10.356Z,36.77
2019-05-29T15:34:36.374Z,36.49
2019-05-29T15:37:03.026Z,36.42
2019-05-29T15:39:29.676Z,36.44
2019-05-29T15:41:56.314Z,36.07
2019-05-29T15:44:22.970Z,36.08
2019-05-29T15:46:49.615Z,36.23
2019-05-29T15:49:17.271Z,35.85
2019-05-29T15:51:42.902Z,35.83
2019-05-29T15:54:09.558Z,35.95
2019-05-29T15:56:36.193Z,35.65
2019-05-29T15:59:02.870Z,35.44
2019-05-29T16:01:29.489Z,35.79
2019-05-29T16:03:56.138Z,35.46
2019-05-29T16:06:22.776Z,35.22
2019-05-29T16:08:49.491Z,35.47
2019-05-29T16:11:16.825Z,35.45
2019-05-29T16:13:42.777Z,35.12
2019-05-29T16:16:09.527Z,35.24
2019-05-29T16:18:36.133Z,35.31
2019-05-29T16:21:02.767Z,35.01
2019-05-29T16:23:35.546Z,35.19
2019-05-29T16:25:56.093Z,35.32
2019-05-29T16:28:22.773Z,35.07
2019-05-29T16:30:49.385Z,34.96
2019-05-29T16:33:17.201Z,35.27
2019-05-29T16:35:42.707Z,35.14
2019-05-29T16:38:09.357Z,35.02
2019-05-29T16:40:35.999Z,35.39
2019-05-29T16:43:02.634Z,35.07
2019-05-29T16:45:29.288Z,34.96
2019-05-29T16:47:55.932Z,35.14
2019-05-29T16:50:22.873Z,35.08
2019-05-29T16:52:49.231Z,34.86
2019-05-29T16:55:17.212Z,35.30
2019-05-29T16:57:42.584Z,35.09
2019-05-29T17:00:09.233Z,35.06
2019-05-29T17:02:35.878Z,35.30
2019-05-29T17:05:02.516Z,35.05
2019-05-29T17:07:29.178Z,35.07
2019-05-29T17:09:55.819Z,35.44
2019-05-29T17:12:22.623Z,35.18
2019-05-29T17:14:49.108Z,35.21
2019-05-29T17:17:16.870Z,35.09
2019-05-29T17:19:42.484Z,35.57
2019-05-29T17:22:09.141Z,35.08
2019-05-29T17:24:35.779Z,35.60
2019-05-29T17:27:02.420Z,36.01
2019-05-29T17:29:29.064Z,36.37
2019-05-29T17:31:55.705Z,36.59
2019-05-29T17:34:23.219Z,36.58
2019-05-29T17:36:49.002Z,36.42
2019-05-29T17:39:16.899Z,36.39
2019-05-29T17:41:42.315Z,36.39
2019-05-29T17:44:08.986Z,36.42
2019-05-29T17:46:35.695Z,36.10
2019-05-29T17:49:02.347Z,35.97
2019-05-29T17:51:28.985Z,36.20
2019-05-29T17:53:55.639Z,36.06
2019-05-29T17:56:29.688Z,35.91
2019-05-29T17:58:48.980Z,36.03
2019-05-29T18:01:16.101Z,36.26
2019-05-29T18:03:42.270Z,36.06
2019-05-29T18:06:08.928Z,36.05
2019-05-29T18:08:35.570Z,36.11
2019-05-29T18:11:02.208Z,36.13
2019-05-29T18:13:28.863Z,36.01
2019-05-29T18:15:55.549Z,35.87
2019-05-29T18:18:23.452Z,35.94
2019-05-29T18:20:48.892Z,36.17
2019-05-29T18:23:15.524Z,35.99
2019-05-29T18:25:42.168Z,35.90
2019-05-29T18:28:08.806Z,35.86
2019-05-29T18:30:35.442Z,36.20
2019-05-29T18:33:02.092Z,36.08
2019-05-29T18:35:29.069Z,36.11
2019-05-29T18:37:55.451Z,35.99
2019-05-29T18:40:22.391Z,35.99
2019-05-29T18:42:48.733Z,36.36
2019-05-29T18:45:20.997Z,36.10
2019-05-29T18:47:42.102Z,35.95
2019-05-29T18:52:35.423Z,36.01
2019-05-29T18:55:02.066Z,36.45
2019-05-29T18:57:29.062Z,36.22
2019-05-29T18:59:55.438Z,36.27
2019-05-29T19:02:23.230Z,36.41
2019-05-29T19:04:48.757Z,36.43
2019-05-29T19:07:15.453Z,36.50
2019-05-29T19:09:42.101Z,36.45
2019-05-29T19:12:08.777Z,36.52
2019-05-29T19:14:35.426Z,36.67
2019-05-29T19:17:02.142Z,36.59
2019-05-29T19:19:30.183Z,36.58
2019-05-29T19:21:55.480Z,36.64
2019-05-29T19:24:22.566Z,36.50
2019-05-29T19:26:48.775Z,37.01
2019-05-29T19:29:15.497Z,36.89
2019-05-29T19:31:42.673Z,36.77
2019-05-29T19:34:08.791Z,36.80
2019-05-29T19:36:35.446Z,36.78
2019-05-29T19:39:02.133Z,36.85
2019-05-29T19:41:29.985Z,37.01
2019-05-29T19:43:55.461Z,36.83
2019-05-29T19:46:22.104Z,36.96
2019-05-29T19:48:50.701Z,36.88
2019-05-29T19:51:15.397Z,36.83
2019-05-29T19:53:42.107Z,37.11
2019-05-29T19:56:11.649Z,37.22
2019-05-29T19:58:38.297Z,37.00
2019-05-29T20:03:32.571Z,37.05
2019-05-29T20:05:58.242Z,37.01
2019-05-29T20:08:24.942Z,37.12
2019-05-29T20:10:51.582Z,37.35
2019-05-29T20:13:18.271Z,37.06
2019-05-29T20:15:44.913Z,37.06
2019-05-29T20:18:11.609Z,37.04
2019-05-29T20:20:38.725Z,37.52
2019-05-29T20:23:04.935Z,37.04
2019-05-29T20:25:32.744Z,36.87
2019-05-29T20:28:06.523Z,36.94
2019-05-29T20:30:24.901Z,36.92
2019-05-29T20:32:51.556Z,36.77
2019-05-29T20:35:18.233Z,37.11
2019-05-29T20:37:44.917Z,36.86
2019-05-29T20:40:11.610Z,36.83
2019-05-29T20:42:38.556Z,36.90
2019-05-29T20:45:04.954Z,36.71
2019-05-29T20:49:58.254Z,36.62
2019-05-29T20:52:24.894Z,36.61
2019-05-29T20:54:51.546Z,36.81
2019-05-29T20:57:18.208Z,36.52
2019-05-29T20:59:44.840Z,36.46
2019-05-29T21:02:11.525Z,36.51
2019-05-29T21:04:38.482Z,36.45
2019-05-29T21:07:04.850Z,36.48
2019-05-29T21:09:32.845Z,36.39
2019-05-29T21:11:58.167Z,36.65
2019-05-29T21:14:24.793Z,36.58
2019-05-29T21:16:51.486Z,36.44
2019-05-29T21:19:18.111Z,36.41
2019-05-29T21:21:44.754Z,36.47
2019-05-29T21:24:11.390Z,36.29
2019-05-29T21:26:38.905Z,36.48
2019-05-29T21:29:04.681Z,36.29
2019-05-29T21:31:31.328Z,36.20
2019-05-29T21:36:24.641Z,36.35
2019-05-29T21:38:51.344Z,36.28
2019-05-29T21:41:17.976Z,36.26
2019-05-29T21:43:44.826Z,36.72
2019-05-29T21:48:38.989Z,36.40
2019-05-29T21:51:04.669Z,36.34
2019-05-29T21:53:31.312Z,36.24
2019-05-29T21:55:57.948Z,36.25
2019-05-29T21:58:24.598Z,36.31
2019-05-29T22:00:51.277Z,36.22
2019-05-29T22:03:17.919Z,36.17
2019-05-29T22:05:44.786Z,36.53
2019-05-29T22:08:11.269Z,36.28
2019-05-29T22:10:37.910Z,36.25
2019-05-29T22:13:04.553Z,36.29
2019-05-29T22:15:31.203Z,36.18
2019-05-29T22:17:59.069Z,36.22
2019-05-29T22:20:24.521Z,36.18
2019-05-29T22:22:51.210Z,36.29
2019-05-29T22:25:17.841Z,36.08
2019-05-29T22:27:44.477Z,36.41
2019-05-29T22:30:11.116Z,36.35
2019-05-29T22:32:37.760Z,36.05
2019-05-29T22:35:04.396Z,36.08
2019-05-29T22:37:31.089Z,36.08
2019-05-29T22:39:57.760Z,36.26
2019-05-29T22:42:24.382Z,36.38
2019-05-29T22:44:51.599Z,36.16
2019-05-29T22:47:17.675Z,36.14
2019-05-29T22:49:44.326Z,36.16
2019-05-29T22:52:10.956Z,36.04
2019-05-29T22:54:37.608Z,36.00
2019-05-29T22:57:04.240Z,36.02
2019-05-29T22:59:32.162Z,36.07
2019-05-29T23:01:58.196Z,36.00
2019-05-29T23:04:24.190Z,36.07
2019-05-29T23:06:51.991Z,36.10
2019-05-29T23:09:17.490Z,35.94
2019-05-29T23:11:44.129Z,36.00
2019-05-29T23:14:10.792Z,35.94
2019-05-29T23:16:37.437Z,36.22
2019-05-29T23:19:04.133Z,36.21
2019-05-29T23:21:30.780Z,35.99
2019-05-29T23:23:57.542Z,35.99
2019-05-29T23:26:24.096Z,36.05
2019-05-29T23:28:50.769Z,36.00
2019-05-29T23:31:17.426Z,35.98
2019-05-29T23:33:44.071Z,35.87
2019-05-29T23:36:10.779Z,35.89
2019-05-29T23:38:37.422Z,35.82
2019-05-29T23:41:04.059Z,36.26
2019-05-29T23:43:30.711Z,35.92
2019-05-29T23:45:57.454Z,35.93
2019-05-29T23:48:24.075Z,35.94
2019-05-29T23:50:50.712Z,35.85
2019-05-29T23:53:17.391Z,35.88
2019-05-29T23:55:44.025Z,35.97
2019-05-29T23:58:10.716Z,36.02
